sensor_id;sensor_type;location;lat;lon;timestamp;pressure;altitude;pressure_sealevel;temperature;humidity
68376;BME280;55318;52.068;5.188;2022-08-24T00:02:54;101822.0;;;20.85;89.81
68376;BME280;55318;52.068;5.188;2022-08-24T00:04:30;101820.0;;;20.78;90.69
68376;BME280;55318;52.068;5.188;2022-08-24T00:06:11;101823.0;;;20.77;91.16
68376;BME280;55318;52.068;5.188;2022-08-24T00:07:49;101827.0;;;20.74;91.6
68376;BME280;55318;52.068;5.188;2022-08-24T00:11:03;101828.0;;;20.71;91.21
68376;BME280;55318;52.068;5.188;2022-08-24T00:12:39;101826.0;;;20.7;92.12
68376;BME280;55318;52.068;5.188;2022-08-24T00:14:16;101830.0;;;20.71;92.62
68376;BME280;55318;52.068;5.188;2022-08-24T00:17:30;101828.0;;;20.71;91.77
68376;BME280;55318;52.068;5.188;2022-08-24T00:19:06;101831.0;;;20.67;91.83
68376;BME280;55318;52.068;5.188;2022-08-24T00:20:42;101830.0;;;20.65;92.64
68376;BME280;55318;52.068;5.188;2022-08-24T00:23:56;101827.0;;;20.65;92.37
68376;BME280;55318;52.068;5.188;2022-08-24T00:25:32;101827.0;;;20.66;92.41
68376;BME280;55318;52.068;5.188;2022-08-24T00:27:10;101827.0;;;20.7;91.6
68376;BME280;55318;52.068;5.188;2022-08-24T00:28:46;101826.0;;;20.64;91.78
68376;BME280;55318;52.068;5.188;2022-08-24T00:31:59;101821.0;;;20.63;92.05
68376;BME280;55318;52.068;5.188;2022-08-24T00:33:36;101824.0;;;20.58;92.49
68376;BME280;55318;52.068;5.188;2022-08-24T00:35:14;101823.0;;;20.57;92.11
68376;BME280;55318;52.068;5.188;2022-08-24T00:38:30;101823.0;;;20.65;92.87
68376;BME280;55318;52.068;5.188;2022-08-24T00:40:13;101819.0;;;20.59;93.13
68376;BME280;55318;52.068;5.188;2022-08-24T00:41:53;101819.0;;;20.57;92.9
68376;BME280;55318;52.068;5.188;2022-08-24T00:43:29;101824.0;;;20.58;92.66
68376;BME280;55318;52.068;5.188;2022-08-24T00:46:50;101821.0;;;20.57;91.72
68376;BME280;55318;52.068;5.188;2022-08-24T00:48:37;101820.0;;;20.52;91.3
68376;BME280;55318;52.068;5.188;2022-08-24T00:50:21;101816.0;;;20.47;91.74
68376;BME280;55318;52.068;5.188;2022-08-24T00:52:02;101817.0;;;20.46;90.92
68376;BME280;55318;52.068;5.188;2022-08-24T00:55:32;101819.0;;;20.45;91.73
68376;BME280;55318;52.068;5.188;2022-08-24T00:57:14;101817.0;;;20.45;91.56
68376;BME280;55318;52.068;5.188;2022-08-24T00:58:58;101815.0;;;20.51;90.92
68376;BME280;55318;52.068;5.188;2022-08-24T01:00:42;101815.0;;;20.45;91.8
68376;BME280;55318;52.068;5.188;2022-08-24T01:02:22;101815.0;;;20.38;92.01
68376;BME280;55318;52.068;5.188;2022-08-24T01:05:47;101813.0;;;20.34;92.09
68376;BME280;55318;52.068;5.188;2022-08-24T01:07:24;101814.0;;;20.32;91.31
68376;BME280;55318;52.068;5.188;2022-08-24T01:09:04;101811.0;;;20.3;91.56
68376;BME280;55318;52.068;5.188;2022-08-24T01:10:42;101810.0;;;20.27;91.71
68376;BME280;55318;52.068;5.188;2022-08-24T01:14:03;101808.0;;;20.25;92.25
68376;BME280;55318;52.068;5.188;2022-08-24T01:15:41;101806.0;;;20.23;91.87
68376;BME280;55318;52.068;5.188;2022-08-24T01:20:12;101806.0;;;20.28;93.23
68376;BME280;55318;52.068;5.188;2022-08-24T01:21:53;101801.0;;;20.25;92.58
68376;BME280;55318;52.068;5.188;2022-08-24T01:23:43;101808.0;;;20.21;92.83
68376;BME280;55318;52.068;5.188;2022-08-24T01:25:22;101802.0;;;20.18;92.42
68376;BME280;55318;52.068;5.188;2022-08-24T01:28:40;101799.0;;;20.18;92.85
68376;BME280;55318;52.068;5.188;2022-08-24T01:30:18;101797.0;;;20.12;92.86
68376;BME280;55318;52.068;5.188;2022-08-24T01:31:56;101800.0;;;20.11;93.17
68376;BME280;55318;52.068;5.188;2022-08-24T01:33:33;101800.0;;;20.16;94.01
68376;BME280;55318;52.068;5.188;2022-08-24T01:36:47;101806.0;;;20.2;94.95
68376;BME280;55318;52.068;5.188;2022-08-24T01:38:26;101798.0;;;20.09;94.42
68376;BME280;55318;52.068;5.188;2022-08-24T01:40:05;101800.0;;;20.07;93.04
68376;BME280;55318;52.068;5.188;2022-08-24T01:43:18;101800.0;;;20.04;93.88
68376;BME280;55318;52.068;5.188;2022-08-24T01:44:54;101801.0;;;20.0;93.05
68376;BME280;55318;52.068;5.188;2022-08-24T01:46:32;101803.0;;;20.0;93.19
68376;BME280;55318;52.068;5.188;2022-08-24T01:48:09;101806.0;;;20.0;92.57
68376;BME280;55318;52.068;5.188;2022-08-24T01:51:28;101811.0;;;20.0;92.44
68376;BME280;55318;52.068;5.188;2022-08-24T01:53:06;101813.0;;;19.96;92.78
68376;BME280;55318;52.068;5.188;2022-08-24T01:54:43;101817.0;;;19.95;93.26
68376;BME280;55318;52.068;5.188;2022-08-24T01:57:56;101819.0;;;19.91;93.88
68376;BME280;55318;52.068;5.188;2022-08-24T01:59:35;101824.0;;;19.93;93.19
68376;BME280;55318;52.068;5.188;2022-08-24T02:01:12;101821.0;;;19.88;94.33
68376;BME280;55318;52.068;5.188;2022-08-24T02:02:50;101820.0;;;19.89;93.15
68376;BME280;55318;52.068;5.188;2022-08-24T02:06:04;101822.0;;;19.89;93.12
68376;BME280;55318;52.068;5.188;2022-08-24T02:07:41;101819.0;;;19.88;93.12
68376;BME280;55318;52.068;5.188;2022-08-24T02:09:17;101822.0;;;19.91;92.77
68376;BME280;55318;52.068;5.188;2022-08-24T02:12:30;101826.0;;;19.89;94.27
68376;BME280;55318;52.068;5.188;2022-08-24T02:14:06;101832.0;;;19.93;94.76
68376;BME280;55318;52.068;5.188;2022-08-24T02:15:42;101832.0;;;19.89;95.08
68376;BME280;55318;52.068;5.188;2022-08-24T02:18:56;101831.0;;;19.84;94.43
68376;BME280;55318;52.068;5.188;2022-08-24T02:20:33;101826.0;;;19.8;93.2
68376;BME280;55318;52.068;5.188;2022-08-24T02:22:10;101825.0;;;19.79;92.89
68376;BME280;55318;52.068;5.188;2022-08-24T02:23:47;101820.0;;;19.77;93.45
68376;BME280;55318;52.068;5.188;2022-08-24T02:27:01;101823.0;;;19.75;93.33
68376;BME280;55318;52.068;5.188;2022-08-24T02:28:39;101820.0;;;19.75;92.76
68376;BME280;55318;52.068;5.188;2022-08-24T02:30:16;101823.0;;;19.72;93.06
68376;BME280;55318;52.068;5.188;2022-08-24T02:33:29;101823.0;;;19.71;94.32
68376;BME280;55318;52.068;5.188;2022-08-24T02:35:05;101830.0;;;19.7;94.16
68376;BME280;55318;52.068;5.188;2022-08-24T02:36:42;101827.0;;;19.73;93.44
68376;BME280;55318;52.068;5.188;2022-08-24T02:39:56;101825.0;;;19.71;93.82
68376;BME280;55318;52.068;5.188;2022-08-24T02:41:33;101825.0;;;19.72;93.74
68376;BME280;55318;52.068;5.188;2022-08-24T02:43:10;101824.0;;;19.71;93.29
68376;BME280;55318;52.068;5.188;2022-08-24T02:44:47;101822.0;;;19.71;92.6
68376;BME280;55318;52.068;5.188;2022-08-24T02:48:03;101823.0;;;19.7;92.8
68376;BME280;55318;52.068;5.188;2022-08-24T02:49:39;101823.0;;;19.7;92.69
68376;BME280;55318;52.068;5.188;2022-08-24T02:51:18;101821.0;;;19.66;92.45
68376;BME280;55318;52.068;5.188;2022-08-24T02:54:31;101817.0;;;19.63;92.44
68376;BME280;55318;52.068;5.188;2022-08-24T02:56:07;101820.0;;;19.62;92.28
68376;BME280;55318;52.068;5.188;2022-08-24T02:57:43;101819.0;;;19.63;91.91
68376;BME280;55318;52.068;5.188;2022-08-24T02:59:20;101819.0;;;19.62;93.28
68376;BME280;55318;52.068;5.188;2022-08-24T03:02:32;101823.0;;;19.66;93.82
68376;BME280;55318;52.068;5.188;2022-08-24T03:04:08;101826.0;;;19.61;95.04
68376;BME280;55318;52.068;5.188;2022-08-24T03:05:44;101825.0;;;19.62;94.66
68376;BME280;55318;52.068;5.188;2022-08-24T03:08:56;101830.0;;;19.59;95.63
68376;BME280;55318;52.068;5.188;2022-08-24T03:10:32;101830.0;;;19.62;94.19
68376;BME280;55318;52.068;5.188;2022-08-24T03:12:09;101834.0;;;19.61;94.23
68376;BME280;55318;52.068;5.188;2022-08-24T03:15:22;101835.0;;;19.62;93.6
68376;BME280;55318;52.068;5.188;2022-08-24T03:16:58;101837.0;;;19.61;93.53
68376;BME280;55318;52.068;5.188;2022-08-24T03:18:35;101836.0;;;19.57;93.48
68376;BME280;55318;52.068;5.188;2022-08-24T03:20:15;101842.0;;;19.57;93.08
68376;BME280;55318;52.068;5.188;2022-08-24T03:23:32;101834.0;;;19.56;93.81
68376;BME280;55318;52.068;5.188;2022-08-24T03:25:10;101833.0;;;19.57;93.17
68376;BME280;55318;52.068;5.188;2022-08-24T03:26:49;101831.0;;;19.57;93.0
68376;BME280;55318;52.068;5.188;2022-08-24T03:30:07;101831.0;;;19.52;93.11
68376;BME280;55318;52.068;5.188;2022-08-24T03:31:45;101825.0;;;19.52;92.99
68376;BME280;55318;52.068;5.188;2022-08-24T03:33:23;101826.0;;;19.52;93.05
68376;BME280;55318;52.068;5.188;2022-08-24T03:34:59;101822.0;;;19.5;92.42
68376;BME280;55318;52.068;5.188;2022-08-24T03:38:12;101823.0;;;19.48;93.39
68376;BME280;55318;52.068;5.188;2022-08-24T03:39:50;101828.0;;;19.48;93.37
68376;BME280;55318;52.068;5.188;2022-08-24T03:41:26;101828.0;;;19.47;92.83
68376;BME280;55318;52.068;5.188;2022-08-24T03:44:40;101830.0;;;19.43;93.01
68376;BME280;55318;52.068;5.188;2022-08-24T03:46:18;101832.0;;;19.41;93.24
68376;BME280;55318;52.068;5.188;2022-08-24T03:47:55;101827.0;;;19.41;92.94
68376;BME280;55318;52.068;5.188;2022-08-24T03:49:32;101826.0;;;19.41;93.45
68376;BME280;55318;52.068;5.188;2022-08-24T03:52:48;101830.0;;;19.37;93.39
68376;BME280;55318;52.068;5.188;2022-08-24T03:54:26;101831.0;;;19.36;92.93
68376;BME280;55318;52.068;5.188;2022-08-24T03:56:02;101834.0;;;19.34;92.74
68376;BME280;55318;52.068;5.188;2022-08-24T03:59:15;101834.0;;;19.36;92.47
68376;BME280;55318;52.068;5.188;2022-08-24T04:00:50;101830.0;;;19.34;92.6
68376;BME280;55318;52.068;5.188;2022-08-24T04:02:26;101831.0;;;19.34;93.02
68376;BME280;55318;52.068;5.188;2022-08-24T04:05:40;101827.0;;;19.3;92.39
68376;BME280;55318;52.068;5.188;2022-08-24T04:07:17;101832.0;;;19.31;92.53
68376;BME280;55318;52.068;5.188;2022-08-24T04:08:54;101832.0;;;19.3;92.36
68376;BME280;55318;52.068;5.188;2022-08-24T04:10:31;101830.0;;;19.29;92.87
68376;BME280;55318;52.068;5.188;2022-08-24T04:13:46;101830.0;;;19.28;92.69
68376;BME280;55318;52.068;5.188;2022-08-24T04:15:24;101830.0;;;19.27;92.57
68376;BME280;55318;52.068;5.188;2022-08-24T04:17:01;101828.0;;;19.25;93.41
68376;BME280;55318;52.068;5.188;2022-08-24T04:20:15;101830.0;;;19.25;93.92
68376;BME280;55318;52.068;5.188;2022-08-24T04:21:52;101830.0;;;19.25;93.19
68376;BME280;55318;52.068;5.188;2022-08-24T04:23:28;101830.0;;;19.25;92.83
68376;BME280;55318;52.068;5.188;2022-08-24T04:25:06;101830.0;;;19.21;92.68
68376;BME280;55318;52.068;5.188;2022-08-24T04:28:20;101830.0;;;19.23;93.48
68376;BME280;55318;52.068;5.188;2022-08-24T04:29:57;101835.0;;;19.21;93.22
68376;BME280;55318;52.068;5.188;2022-08-24T04:31:34;101834.0;;;19.18;93.01
68376;BME280;55318;52.068;5.188;2022-08-24T04:34:49;101839.0;;;19.18;92.86
68376;BME280;55318;52.068;5.188;2022-08-24T04:36:25;101836.0;;;19.18;92.92
68376;BME280;55318;52.068;5.188;2022-08-24T04:38:02;101840.0;;;19.16;93.25
68376;BME280;55318;52.068;5.188;2022-08-24T04:41:17;101842.0;;;19.16;93.07
68376;BME280;55318;52.068;5.188;2022-08-24T04:42:53;101844.0;;;19.16;93.47
68376;BME280;55318;52.068;5.188;2022-08-24T04:44:30;101844.0;;;19.18;92.82
68376;BME280;55318;52.068;5.188;2022-08-24T04:46:07;101840.0;;;19.18;93.55
68376;BME280;55318;52.068;5.188;2022-08-24T04:49:21;101845.0;;;19.16;92.99
68376;BME280;55318;52.068;5.188;2022-08-24T04:51:00;101844.0;;;19.16;93.07
68376;BME280;55318;52.068;5.188;2022-08-24T04:52:37;101846.0;;;19.18;92.91
68376;BME280;55318;52.068;5.188;2022-08-24T04:55:51;101843.0;;;19.16;93.74
68376;BME280;55318;52.068;5.188;2022-08-24T04:57:27;101845.0;;;19.18;92.98
68376;BME280;55318;52.068;5.188;2022-08-24T04:59:04;101846.0;;;19.2;93.58
68376;BME280;55318;52.068;5.188;2022-08-24T05:00:41;101845.0;;;19.18;93.57
68376;BME280;55318;52.068;5.188;2022-08-24T05:03:56;101849.0;;;19.2;93.36
68376;BME280;55318;52.068;5.188;2022-08-24T05:05:33;101851.0;;;19.2;93.12
68376;BME280;55318;52.068;5.188;2022-08-24T05:07:10;101852.0;;;19.2;93.39
68376;BME280;55318;52.068;5.188;2022-08-24T05:10:23;101852.0;;;19.22;93.01
68376;BME280;55318;52.068;5.188;2022-08-24T05:12:01;101857.0;;;19.25;94.08
68376;BME280;55318;52.068;5.188;2022-08-24T05:13:37;101858.0;;;19.28;94.09
68376;BME280;55318;52.068;5.188;2022-08-24T05:16:52;101855.0;;;19.29;94.89
68376;BME280;55318;52.068;5.188;2022-08-24T05:18:29;101858.0;;;19.28;95.13
68376;BME280;55318;52.068;5.188;2022-08-24T05:20:06;101860.0;;;19.29;95.63
68376;BME280;55318;52.068;5.188;2022-08-24T05:21:43;101861.0;;;19.34;95.37
68376;BME280;55318;52.068;5.188;2022-08-24T05:24:56;101866.0;;;19.38;94.84
68376;BME280;55318;52.068;5.188;2022-08-24T05:26:33;101862.0;;;19.43;94.47
68376;BME280;55318;52.068;5.188;2022-08-24T05:28:09;101864.0;;;19.48;95.07
68376;BME280;55318;52.068;5.188;2022-08-24T05:31:23;101871.0;;;19.56;95.18
68376;BME280;55318;52.068;5.188;2022-08-24T05:33:01;101870.0;;;19.59;94.7
68376;BME280;55318;52.068;5.188;2022-08-24T05:34:37;101876.0;;;19.63;95.25
68376;BME280;55318;52.068;5.188;2022-08-24T05:36:15;101876.0;;;19.68;95.27
68376;BME280;55318;52.068;5.188;2022-08-24T05:39:30;101876.0;;;19.73;94.95
68376;BME280;55318;52.068;5.188;2022-08-24T05:41:06;101872.0;;;19.82;94.61
68376;BME280;55318;52.068;5.188;2022-08-24T05:42:43;101875.0;;;19.97;94.29
68376;BME280;55318;52.068;5.188;2022-08-24T05:45:54;101877.0;;;20.09;94.45
68376;BME280;55318;52.068;5.188;2022-08-24T05:47:31;101878.0;;;20.21;94.04
68376;BME280;55318;52.068;5.188;2022-08-24T05:49:09;101875.0;;;20.31;94.37
68376;BME280;55318;52.068;5.188;2022-08-24T05:52:29;101869.0;;;20.43;94.69
68376;BME280;55318;52.068;5.188;2022-08-24T05:54:06;101871.0;;;20.48;94.78
68376;BME280;55318;52.068;5.188;2022-08-24T05:55:42;101871.0;;;20.57;94.11
68376;BME280;55318;52.068;5.188;2022-08-24T05:57:18;101872.0;;;20.67;94.37
68376;BME280;55318;52.068;5.188;2022-08-24T06:00:32;101876.0;;;20.76;94.13
68376;BME280;55318;52.068;5.188;2022-08-24T06:02:09;101885.0;;;20.88;94.23
68376;BME280;55318;52.068;5.188;2022-08-24T06:03:46;101881.0;;;20.98;92.71
68376;BME280;55318;52.068;5.188;2022-08-24T06:06:59;101877.0;;;21.14;93.11
68376;BME280;55318;52.068;5.188;2022-08-24T06:08:37;101877.0;;;21.33;92.24
68376;BME280;55318;52.068;5.188;2022-08-24T06:10:14;101878.0;;;21.54;91.93
68376;BME280;55318;52.068;5.188;2022-08-24T06:11:49;101878.0;;;21.74;91.2
68376;BME280;55318;52.068;5.188;2022-08-24T06:15:03;101876.0;;;21.88;90.96
68376;BME280;55318;52.068;5.188;2022-08-24T06:16:41;101883.0;;;22.08;90.67
68376;BME280;55318;52.068;5.188;2022-08-24T06:18:20;101886.0;;;22.24;89.04
68376;BME280;55318;52.068;5.188;2022-08-24T06:21:35;101886.0;;;22.35;88.47
68376;BME280;55318;52.068;5.188;2022-08-24T06:23:12;101886.0;;;22.54;88.84
68376;BME280;55318;52.068;5.188;2022-08-24T06:27:41;101891.0;;;22.85;87.85
68376;BME280;55318;52.068;5.188;2022-08-24T06:29:19;101890.0;;;23.09;86.03
68376;BME280;55318;52.068;5.188;2022-08-24T06:31:00;101893.0;;;23.48;85.52
68376;BME280;55318;52.068;5.188;2022-08-24T06:32:38;101896.0;;;23.76;83.5
68376;BME280;55318;52.068;5.188;2022-08-24T06:35:54;101898.0;;;23.99;82.98
68376;BME280;55318;52.068;5.188;2022-08-24T06:37:30;101899.0;;;23.95;83.15
68376;BME280;55318;52.068;5.188;2022-08-24T06:39:06;101891.0;;;24.15;81.58
68376;BME280;55318;52.068;5.188;2022-08-24T06:42:19;101899.0;;;24.28;79.3
68376;BME280;55318;52.068;5.188;2022-08-24T06:43:56;101902.0;;;24.5;78.37
68376;BME280;55318;52.068;5.188;2022-08-24T06:45:32;101900.0;;;24.64;76.87
68376;BME280;55318;52.068;5.188;2022-08-24T06:48:46;101905.0;;;24.85;76.66
68376;BME280;55318;52.068;5.188;2022-08-24T06:50:23;101910.0;;;25.06;76.02
68376;BME280;55318;52.068;5.188;2022-08-24T06:51:59;101909.0;;;25.28;76.36
68376;BME280;55318;52.068;5.188;2022-08-24T06:53:36;101905.0;;;25.35;75.19
68376;BME280;55318;52.068;5.188;2022-08-24T06:56:49;101909.0;;;25.36;73.74
68376;BME280;55318;52.068;5.188;2022-08-24T06:58:26;101912.0;;;25.42;73.36
68376;BME280;55318;52.068;5.188;2022-08-24T07:00:06;101907.0;;;25.58;73.95
68376;BME280;55318;52.068;5.188;2022-08-24T07:03:18;101908.0;;;25.81;73.58
68376;BME280;55318;52.068;5.188;2022-08-24T07:04:53;101911.0;;;25.96;72.44
68376;BME280;55318;52.068;5.188;2022-08-24T07:06:31;101913.0;;;26.03;72.55
68376;BME280;55318;52.068;5.188;2022-08-24T07:09:44;101902.0;;;26.12;71.55
68376;BME280;55318;52.068;5.188;2022-08-24T07:11:21;101903.0;;;26.26;70.77
68376;BME280;55318;52.068;5.188;2022-08-24T07:12:58;101906.0;;;26.35;69.87
68376;BME280;55318;52.068;5.188;2022-08-24T07:14:34;101907.0;;;26.51;69.84
68376;BME280;55318;52.068;5.188;2022-08-24T07:17:46;101909.0;;;26.7;70.66
68376;BME280;55318;52.068;5.188;2022-08-24T07:19:23;101912.0;;;26.85;68.61
68376;BME280;55318;52.068;5.188;2022-08-24T07:21:00;101915.0;;;27.06;67.58
68376;BME280;55318;52.068;5.188;2022-08-24T07:24:14;101914.0;;;27.15;67.58
68376;BME280;55318;52.068;5.188;2022-08-24T07:25:50;101916.0;;;27.2;66.13
68376;BME280;55318;52.068;5.188;2022-08-24T07:27:26;101919.0;;;27.39;65.94
68376;BME280;55318;52.068;5.188;2022-08-24T07:30:46;101918.0;;;27.44;65.19
68376;BME280;55318;52.068;5.188;2022-08-24T07:32:22;101922.0;;;27.63;65.77
68376;BME280;55318;52.068;5.188;2022-08-24T07:33:58;101918.0;;;27.8;64.31
68376;BME280;55318;52.068;5.188;2022-08-24T07:38:53;101921.0;;;27.9;62.84
68376;BME280;55318;52.068;5.188;2022-08-24T07:40:29;101924.0;;;27.92;62.63
68376;BME280;55318;52.068;5.188;2022-08-24T07:42:05;101926.0;;;27.98;63.2
68376;BME280;55318;52.068;5.188;2022-08-24T07:45:22;101923.0;;;28.26;62.64
68376;BME280;55318;52.068;5.188;2022-08-24T07:46:59;101923.0;;;28.45;61.19
68376;BME280;55318;52.068;5.188;2022-08-24T07:48:35;101922.0;;;28.6;61.0
68376;BME280;55318;52.068;5.188;2022-08-24T07:50:11;101923.0;;;28.74;60.98
68376;BME280;55318;52.068;5.188;2022-08-24T07:53:25;101923.0;;;28.85;60.26
68376;BME280;55318;52.068;5.188;2022-08-24T07:55:02;101928.0;;;29.0;60.62
68376;BME280;55318;52.068;5.188;2022-08-24T07:56:38;101930.0;;;29.12;58.9
68376;BME280;55318;52.068;5.188;2022-08-24T07:59:51;101930.0;;;29.02;59.4
68376;BME280;55318;52.068;5.188;2022-08-24T08:01:27;101932.0;;;29.26;60.03
68376;BME280;55318;52.068;5.188;2022-08-24T08:03:04;101936.0;;;29.37;58.22
68376;BME280;55318;52.068;5.188;2022-08-24T08:06:18;101935.0;;;29.51;59.16
68376;BME280;55318;52.068;5.188;2022-08-24T08:07:55;101936.0;;;29.75;59.24
68376;BME280;55318;52.068;5.188;2022-08-24T08:09:31;101938.0;;;29.69;57.57
68376;BME280;55318;52.068;5.188;2022-08-24T08:11:09;101939.0;;;29.67;56.81
68376;BME280;55318;52.068;5.188;2022-08-24T08:14:22;101943.0;;;29.85;57.81
68376;BME280;55318;52.068;5.188;2022-08-24T08:15:59;101945.0;;;30.03;57.42
68376;BME280;55318;52.068;5.188;2022-08-24T08:17:36;101944.0;;;30.07;57.37
68376;BME280;55318;52.068;5.188;2022-08-24T08:20:49;101948.0;;;30.22;55.34
68376;BME280;55318;52.068;5.188;2022-08-24T08:25:20;101956.0;;;30.08;56.55
68376;BME280;55318;52.068;5.188;2022-08-24T08:26:56;101958.0;;;30.27;55.29
68376;BME280;55318;52.068;5.188;2022-08-24T08:28:33;101957.0;;;30.33;55.17
68376;BME280;55318;52.068;5.188;2022-08-24T08:30:10;101961.0;;;30.34;55.12
68376;BME280;55318;52.068;5.188;2022-08-24T08:33:22;101962.0;;;30.37;53.81
68376;BME280;55318;52.068;5.188;2022-08-24T08:34:58;101965.0;;;30.33;54.45
68376;BME280;55318;52.068;5.188;2022-08-24T08:36:35;101960.0;;;30.37;54.99
68376;BME280;55318;52.068;5.188;2022-08-24T08:38:13;101955.0;;;30.46;54.31
68376;BME280;55318;52.068;5.188;2022-08-24T08:45:20;101956.0;;;30.64;54.57
68376;BME280;55318;52.068;5.188;2022-08-24T08:47:15;101959.0;;;30.82;54.0
68376;BME280;55318;52.068;5.188;2022-08-24T08:49:07;101958.0;;;30.93;53.04
68376;BME280;55318;52.068;5.188;2022-08-24T08:51:08;101958.0;;;30.83;52.73
68376;BME280;55318;52.068;5.188;2022-08-24T08:54:37;101962.0;;;30.87;53.58
68376;BME280;55318;52.068;5.188;2022-08-24T08:56:31;101960.0;;;30.95;51.69
68376;BME280;55318;52.068;5.188;2022-08-24T08:58:19;101966.0;;;31.06;52.37
68376;BME280;55318;52.068;5.188;2022-08-24T09:00:13;101965.0;;;30.93;51.43
68376;BME280;55318;52.068;5.188;2022-08-24T09:01:58;101964.0;;;31.06;53.63
68376;BME280;55318;52.068;5.188;2022-08-24T09:04:03;101964.0;;;31.18;50.94
68376;BME280;55318;52.068;5.188;2022-08-24T09:07:23;101964.0;;;31.36;52.43
68376;BME280;55318;52.068;5.188;2022-08-24T09:09:27;101963.0;;;31.45;51.29
68376;BME280;55318;52.068;5.188;2022-08-24T09:11:18;101963.0;;;31.52;51.66
68376;BME280;55318;52.068;5.188;2022-08-24T09:13:14;101963.0;;;31.62;51.62
68376;BME280;55318;52.068;5.188;2022-08-24T09:15:06;101962.0;;;31.78;50.7
68376;BME280;55318;52.068;5.188;2022-08-24T09:17:04;101967.0;;;31.88;49.16
68376;BME280;55318;52.068;5.188;2022-08-24T09:19:00;101969.0;;;31.91;48.9
68376;BME280;55318;52.068;5.188;2022-08-24T09:20:52;101970.0;;;31.86;50.08
68376;BME280;55318;52.068;5.188;2022-08-24T09:22:54;101969.0;;;31.87;49.3
68376;BME280;55318;52.068;5.188;2022-08-24T09:24:49;101966.0;;;31.75;49.03
68376;BME280;55318;52.068;5.188;2022-08-24T09:27:05;101964.0;;;31.43;49.66
68376;BME280;55318;52.068;5.188;2022-08-24T09:28:52;101966.0;;;31.73;49.11
68376;BME280;55318;52.068;5.188;2022-08-24T09:30:55;101963.0;;;31.67;49.73
68376;BME280;55318;52.068;5.188;2022-08-24T09:32:50;101965.0;;;31.74;47.79
68376;BME280;55318;52.068;5.188;2022-08-24T09:34:49;101967.0;;;31.78;49.62
68376;BME280;55318;52.068;5.188;2022-08-24T09:38:44;101968.0;;;31.85;48.37
68376;BME280;55318;52.068;5.188;2022-08-24T09:40:37;101962.0;;;32.15;47.6
68376;BME280;55318;52.068;5.188;2022-08-24T09:42:55;101966.0;;;32.28;49.1
68376;BME280;55318;52.068;5.188;2022-08-24T09:53:28;101960.0;;;32.42;46.95
68376;BME280;55318;52.068;5.188;2022-08-24T09:55:40;101956.0;;;32.49;45.03
68376;BME280;55318;52.068;5.188;2022-08-24T09:57:49;101958.0;;;32.54;47.4
68376;BME280;55318;52.068;5.188;2022-08-24T10:01:45;101952.0;;;32.61;46.57
68376;BME280;55318;52.068;5.188;2022-08-24T10:03:44;101957.0;;;32.64;46.4
68376;BME280;55318;52.068;5.188;2022-08-24T10:05:45;101955.0;;;32.72;46.18
68376;BME280;55318;52.068;5.188;2022-08-24T10:07:41;101959.0;;;32.54;44.67
68376;BME280;55318;52.068;5.188;2022-08-24T10:09:43;101951.0;;;32.65;46.64
68376;BME280;55318;52.068;5.188;2022-08-24T10:11:33;101948.0;;;32.81;45.68
68376;BME280;55318;52.068;5.188;2022-08-24T10:13:23;101951.0;;;33.06;45.31
68376;BME280;55318;52.068;5.188;2022-08-24T10:15:07;101950.0;;;33.24;44.67
68376;BME280;55318;52.068;5.188;2022-08-24T10:16:56;101953.0;;;32.99;44.48
68376;BME280;55318;52.068;5.188;2022-08-24T10:18:47;101953.0;;;33.18;44.96
68376;BME280;55318;52.068;5.188;2022-08-24T10:22:57;101955.0;;;33.42;44.65
68376;BME280;55318;52.068;5.188;2022-08-24T10:24:46;101947.0;;;33.25;44.5
68376;BME280;55318;52.068;5.188;2022-08-24T10:26:43;101945.0;;;33.29;44.19
68376;BME280;55318;52.068;5.188;2022-08-24T10:28:47;101948.0;;;33.14;43.67
68376;BME280;55318;52.068;5.188;2022-08-24T10:31:01;101947.0;;;33.26;42.5
68376;BME280;55318;52.068;5.188;2022-08-24T10:32:48;101945.0;;;33.39;44.23
68376;BME280;55318;52.068;5.188;2022-08-24T10:34:43;101948.0;;;33.55;42.36
68376;BME280;55318;52.068;5.188;2022-08-24T10:36:38;101942.0;;;33.49;42.55
68376;BME280;55318;52.068;5.188;2022-08-24T10:40:15;101937.0;;;33.46;42.59
68376;BME280;55318;52.068;5.188;2022-08-24T10:42:23;101934.0;;;33.08;43.74
68376;BME280;55318;52.068;5.188;2022-08-24T10:44:46;101931.0;;;33.35;42.66
68376;BME280;55318;52.068;5.188;2022-08-24T10:46:34;101935.0;;;33.33;42.6
68376;BME280;55318;52.068;5.188;2022-08-24T10:48:52;101934.0;;;33.46;42.53
68376;BME280;55318;52.068;5.188;2022-08-24T10:51:20;101934.0;;;33.64;43.3
68376;BME280;55318;52.068;5.188;2022-08-24T10:53:14;101932.0;;;33.62;43.1
68376;BME280;55318;52.068;5.188;2022-08-24T10:55:12;101936.0;;;33.74;42.58
68376;BME280;55318;52.068;5.188;2022-08-24T10:57:03;101931.0;;;33.31;42.56
68376;BME280;55318;52.068;5.188;2022-08-24T10:58:43;101930.0;;;33.17;44.13
68376;BME280;55318;52.068;5.188;2022-08-24T11:00:31;101923.0;;;33.25;42.97
68376;BME280;55318;52.068;5.188;2022-08-24T11:04:10;101921.0;;;33.0;42.75
68376;BME280;55318;52.068;5.188;2022-08-24T11:05:51;101920.0;;;32.6;42.45
68376;BME280;55318;52.068;5.188;2022-08-24T11:07:30;101917.0;;;32.39;43.6
68376;BME280;55318;52.068;5.188;2022-08-24T11:09:10;101919.0;;;32.11;45.63
68376;BME280;55318;52.068;5.188;2022-08-24T11:12:43;101922.0;;;31.95;45.26
68376;BME280;55318;52.068;5.188;2022-08-24T11:14:24;101923.0;;;31.82;44.27
68376;BME280;55318;52.068;5.188;2022-08-24T11:16:03;101924.0;;;31.59;45.81
68376;BME280;55318;52.068;5.188;2022-08-24T11:17:52;101920.0;;;31.5;46.48
68376;BME280;55318;52.068;5.188;2022-08-24T11:19:32;101920.0;;;31.48;46.18
68376;BME280;55318;52.068;5.188;2022-08-24T11:23:15;101923.0;;;31.77;46.32
68376;BME280;55318;52.068;5.188;2022-08-24T11:24:56;101922.0;;;32.14;46.32
68376;BME280;55318;52.068;5.188;2022-08-24T11:26:46;101922.0;;;32.43;46.44
68376;BME280;55318;52.068;5.188;2022-08-24T11:28:31;101919.0;;;32.64;45.79
68376;BME280;55318;52.068;5.188;2022-08-24T11:30:13;101914.0;;;32.8;45.47
68376;BME280;55318;52.068;5.188;2022-08-24T11:31:50;101916.0;;;32.89;44.6